Time;durP1;ratioP1;P1;durP2;ratioP2;P2;SDS_P1;SDS_P2;PMS_P1;PMS_P2;Temp;Humidity;BMP_temperature;BMP_pressure;BME280_temperature;BME280_humidity;BME280_pressure;Samples;Min_cycle;Max_cycle;Signal;HPM_P1;HPM_P2
2022/07/20 00:00:37;;;;;;;6.40;2.15;;;25.30;90.90;;;;;;5051949;28;20128;-83
2022/07/20 00:03:11;;;;;;;7.13;4.10;;;25.20;90.80;;;;;;5077686;28;20036;-83
2022/07/20 00:05:40;;;;;;;3.42;2.17;;;25.20;91.10;;;;;;5053065;28;20103;-83
2022/07/20 00:08:06;;;;;;;10.70;4.50;;;25.10;91.00;;;;;;5051388;28;20416;-83
2022/07/20 00:13:17;;;;;;;5.60;3.65;;;25.00;91.00;;;;;;5049164;28;20052;-83
2022/07/20 00:15:43;;;;;;;10.23;3.15;;;24.90;91.10;;;;;;5051657;28;20114;-82
2022/07/20 00:18:10;;;;;;;5.10;2.35;;;24.80;91.50;;;;;;5051708;28;20048;-83
2022/07/20 00:20:36;;;;;;;2.80;2.28;;;24.80;91.10;;;;;;5052443;28;20127;-82
2022/07/20 00:23:02;;;;;;;4.65;2.08;;;24.80;91.20;;;;;;5046143;28;20037;-82
2022/07/20 00:25:28;;;;;;;4.18;2.70;;;24.70;91.30;;;;;;5053606;28;20380;-83
2022/07/20 00:27:54;;;;;;;7.95;3.10;;;24.70;91.30;;;;;;5034665;28;20048;-83
2022/07/20 00:30:20;;;;;;;4.65;2.28;;;24.60;91.30;;;;;;5041896;28;20394;-83
2022/07/20 00:32:46;;;;;;;4.50;2.35;;;24.50;91.40;;;;;;5043283;28;20033;-83
2022/07/20 00:35:14;;;;;;;5.35;2.58;;;24.50;91.50;;;;;;5044441;28;20043;-83
2022/07/20 00:37:41;;;;;;;6.95;2.80;;;24.40;91.50;;;;;;5043610;28;20048;-83
2022/07/20 00:40:09;;;;;;;4.97;3.00;;;24.40;91.60;;;;;;5043074;28;20029;-83
2022/07/20 00:42:35;;;;;;;5.88;2.45;;;24.30;91.50;;;;;;5045892;28;20431;-84
2022/07/20 00:45:02;;;;;;;4.75;2.30;;;24.30;91.60;;;;;;5044672;28;20723;-82
2022/07/20 00:47:28;;;;;;;3.03;2.42;;;24.20;91.60;;;;;;5010260;28;20455;-83
2022/07/20 00:49:53;;;;;;;6.03;2.45;;;24.20;91.70;;;;;;5042309;28;20077;-82
2022/07/20 00:52:19;;;;;;;4.32;2.65;;;24.20;91.70;;;;;;5038839;28;20407;-85
2022/07/20 00:54:48;;;;;;;7.28;2.55;;;24.20;91.80;;;;;;5046217;28;20057;-83
2022/07/20 00:57:15;;;;;;;4.93;3.13;;;24.10;91.70;;;;;;5043929;28;20539;-83
2022/07/20 00:59:41;;;;;;;5.90;2.47;;;24.10;91.70;;;;;;5046340;28;20503;-83
2022/07/20 01:02:06;;;;;;;3.35;2.15;;;24.10;91.90;;;;;;5041104;28;20124;-84
2022/07/20 01:04:32;;;;;;;5.05;3.30;;;24.00;91.80;;;;;;5045469;28;20419;-83
2022/07/20 01:06:58;;;;;;;5.97;3.22;;;24.00;91.80;;;;;;5045924;28;20045;-82
2022/07/20 01:09:24;;;;;;;4.55;2.08;;;23.90;91.90;;;;;;5075532;28;20056;-82
2022/07/20 01:11:50;;;;;;;3.75;2.60;;;23.90;91.90;;;;;;5037463;28;20046;-83
2022/07/20 01:14:16;;;;;;;6.22;2.80;;;23.90;92.00;;;;;;5074383;28;20049;-82
2022/07/20 01:16:42;;;;;;;9.30;2.92;;;23.80;91.90;;;;;;5045826;28;20048;-82
2022/07/20 01:19:08;;;;;;;5.57;4.32;;;23.80;92.10;;;;;;5043924;28;20044;-82
2022/07/20 01:21:43;;;;;;;4.28;2.40;;;23.70;92.10;;;;;;5044064;28;20528;-82
2022/07/20 01:24:11;;;;;;;6.97;2.47;;;23.80;92.10;;;;;;5044118;28;20114;-83
2022/07/20 01:26:41;;;;;;;4.32;2.45;;;23.70;92.10;;;;;;5045201;28;20045;-82
2022/07/20 01:29:09;;;;;;;3.67;2.90;;;23.70;92.10;;;;;;5041471;28;20393;-82
2022/07/20 01:31:36;;;;;;;5.43;2.58;;;23.70;92.20;;;;;;5045220;28;20805;-82
2022/07/20 01:34:02;;;;;;;6.40;2.20;;;23.60;92.30;;;;;;5041067;28;20128;-83
2022/07/20 01:36:27;;;;;;;4.97;2.10;;;23.50;92.10;;;;;;5047295;28;20037;-83
2022/07/20 01:38:53;;;;;;;5.72;2.50;;;23.50;92.20;;;;;;5047228;28;20045;-83
2022/07/20 01:41:19;;;;;;;8.07;3.28;;;23.50;92.40;;;;;;5052241;28;20043;-81
2022/07/20 01:43:44;;;;;;;6.55;2.50;;;23.40;92.20;;;;;;5048301;28;20029;-81
2022/07/20 01:46:10;;;;;;;4.97;3.20;;;23.40;92.30;;;;;;5044252;28;20041;-80
2022/07/20 01:48:36;;;;;;;7.88;3.38;;;23.40;92.30;;;;;;5049076;28;21401;-82
2022/07/20 01:51:02;;;;;;;7.97;3.70;;;23.40;92.30;;;;;;5052917;28;20086;-82
2022/07/20 01:53:28;;;;;;;3.90;2.47;;;23.40;92.20;;;;;;5058982;22;20403;-82
2022/07/20 01:55:54;;;;;;;14.45;3.15;;;23.40;92.30;;;;;;5035274;28;20049;-82
2022/07/20 01:58:20;;;;;;;11.57;5.35;;;23.40;92.30;;;;;;5043783;28;20045;-83
2022/07/20 02:00:46;;;;;;;6.38;3.25;;;23.30;92.30;;;;;;5041176;28;20041;-83
2022/07/20 02:03:12;;;;;;;4.82;2.38;;;23.30;92.40;;;;;;5035730;28;20147;-83
2022/07/20 02:05:38;;;;;;;4.93;2.92;;;23.30;92.40;;;;;;5031392;28;20128;-83
2022/07/20 02:08:04;;;;;;;4.10;2.60;;;23.30;92.50;;;;;;5040274;28;20483;-82
2022/07/20 02:10:29;;;;;;;2.42;2.22;;;23.30;92.30;;;;;;5048540;28;20045;-85
2022/07/20 02:12:55;;;;;;;7.75;3.20;;;23.30;92.30;;;;;;5048549;28;20056;-84
2022/07/20 02:18:11;;;;;;;6.07;2.75;;;23.20;92.40;;;;;;5029352;28;20045;-82
2022/07/20 02:20:37;;;;;;;7.03;4.18;;;23.20;92.40;;;;;;5033541;28;20041;-82
2022/07/20 02:23:05;;;;;;;5.40;3.20;;;23.20;92.20;;;;;;5046003;28;20134;-82
2022/07/20 02:25:31;;;;;;;10.18;2.70;;;23.20;92.40;;;;;;5039772;28;20041;-82
2022/07/20 02:27:57;;;;;;;6.60;3.45;;;23.10;92.40;;;;;;5048916;28;20045;-82
2022/07/20 02:30:23;;;;;;;12.02;3.20;;;23.10;92.50;;;;;;5048809;28;20044;-82
2022/07/20 02:32:49;;;;;;;6.97;3.05;;;23.10;92.50;;;;;;5045886;28;20095;-81
2022/07/20 02:35:14;;;;;;;6.30;2.97;;;23.00;92.60;;;;;;5040284;28;20045;-82
2022/07/20 02:37:40;;;;;;;11.68;3.78;;;23.00;92.70;;;;;;5039597;28;20047;-82
2022/07/20 02:40:07;;;;;;;7.75;3.30;;;22.90;92.70;;;;;;5037423;28;20038;-83
2022/07/20 02:42:32;;;;;;;5.30;3.50;;;22.90;92.70;;;;;;5032240;28;20046;-82
2022/07/20 02:44:58;;;;;;;8.95;2.17;;;22.90;92.70;;;;;;5044330;28;20517;-81
2022/07/20 02:47:25;;;;;;;15.23;4.00;;;22.80;92.80;;;;;;5051786;28;20402;-83
2022/07/20 02:49:50;;;;;;;10.00;3.65;;;22.80;92.80;;;;;;5052665;28;20135;-82
2022/07/20 02:52:16;;;;;;;5.47;3.65;;;22.70;92.90;;;;;;5047066;28;20100;-83
2022/07/20 02:54:42;;;;;;;8.75;3.17;;;22.70;92.90;;;;;;5047862;28;20512;-83
2022/07/20 02:57:07;;;;;;;6.75;3.65;;;22.70;92.90;;;;;;5049134;28;20044;-84
2022/07/20 02:59:33;;;;;;;6.97;3.55;;;22.60;93.00;;;;;;5045078;28;20048;-81
2022/07/20 03:01:59;;;;;;;3.97;2.85;;;22.70;93.00;;;;;;5045276;28;20487;-81
2022/07/20 03:04:24;;;;;;;4.18;2.85;;;22.70;93.00;;;;;;5044997;28;20045;-84
2022/07/20 03:06:50;;;;;;;8.95;3.80;;;22.60;93.00;;;;;;5044448;28;20407;-82
2022/07/20 03:09:15;;;;;;;5.78;2.72;;;22.60;92.90;;;;;;5046637;28;20076;-82
2022/07/20 03:11:41;;;;;;;5.40;2.72;;;22.60;93.00;;;;;;5047863;28;20044;-83
2022/07/20 03:14:07;;;;;;;9.18;2.72;;;22.60;93.00;;;;;;5038045;28;20049;-82
2022/07/20 03:16:32;;;;;;;7.63;3.60;;;22.60;93.00;;;;;;5027456;28;20042;-81
2022/07/20 03:18:58;;;;;;;9.35;3.33;;;22.60;92.90;;;;;;5031688;28;20033;-81
2022/07/20 03:21:25;;;;;;;8.68;3.65;;;22.60;92.90;;;;;;5047736;28;20056;-82
2022/07/20 03:23:51;;;;;;;7.13;3.15;;;22.60;92.90;;;;;;5047560;28;20048;-82
2022/07/20 03:26:18;;;;;;;11.10;4.45;;;22.60;93.10;;;;;;5044424;28;20037;-82
2022/07/20 03:28:44;;;;;;;6.95;2.65;;;22.60;93.00;;;;;;5036717;28;20041;-82
2022/07/20 03:31:10;;;;;;;8.80;2.95;;;22.60;92.90;;;;;;5045324;28;20040;-83
2022/07/20 03:33:36;;;;;;;7.20;3.17;;;22.50;93.00;;;;;;5047408;28;20136;-84
2022/07/20 03:36:02;;;;;;;7.07;3.60;;;22.60;93.10;;;;;;5045159;28;20580;-81
2022/07/20 03:38:28;;;;;;;5.97;3.58;;;22.50;93.10;;;;;;5046549;28;20040;-83
2022/07/20 03:40:53;;;;;;;5.18;3.45;;;22.50;93.10;;;;;;5047478;28;20051;-81
2022/07/20 03:43:19;;;;;;;6.53;3.40;;;22.50;93.20;;;;;;5046529;28;20403;-85
2022/07/20 03:45:45;;;;;;;8.45;3.55;;;22.40;93.30;;;;;;5046717;28;20394;-81
2022/07/20 03:48:10;;;;;;;13.52;4.53;;;22.40;93.30;;;;;;5043141;28;20051;-81
2022/07/20 03:50:36;;;;;;;4.72;3.53;;;22.40;93.40;;;;;;5048152;28;20047;-80
2022/07/20 03:53:02;;;;;;;7.03;3.25;;;22.30;93.50;;;;;;5047460;28;20402;-81
2022/07/20 03:55:27;;;;;;;12.07;3.60;;;22.40;93.50;;;;;;5047068;28;20049;-81
2022/07/20 03:57:53;;;;;;;8.40;3.53;;;22.30;93.50;;;;;;5040320;28;20095;-81
2022/07/20 04:00:19;;;;;;;10.40;4.07;;;22.30;93.50;;;;;;5042991;28;20107;-80
2022/07/20 04:02:45;;;;;;;5.03;3.25;;;22.30;93.60;;;;;;5046940;28;20128;-81
2022/07/20 04:05:10;;;;;;;5.53;3.28;;;22.20;93.70;;;;;;5045451;28;20041;-81
2022/07/20 04:07:36;;;;;;;13.43;3.67;;;22.20;93.70;;;;;;5047356;28;20052;-81
2022/07/20 04:10:03;;;;;;;9.43;3.25;;;22.20;93.80;;;;;;5037368;28;20040;-81
2022/07/20 04:12:28;;;;;;;6.88;3.50;;;22.30;93.70;;;;;;5036613;28;20079;-80
2022/07/20 04:14:54;;;;;;;10.23;4.18;;;22.30;93.70;;;;;;5035133;28;20108;-81
2022/07/20 04:17:22;;;;;;;4.90;2.95;;;22.30;93.70;;;;;;5041612;28;20041;-81
2022/07/20 04:19:48;;;;;;;5.00;3.08;;;22.30;93.70;;;;;;5030462;28;20080;-79
2022/07/20 04:22:14;;;;;;;10.43;3.28;;;22.30;93.70;;;;;;5027297;28;20037;-81
2022/07/20 04:24:39;;;;;;;6.55;3.65;;;22.40;93.70;;;;;;5037927;28;20044;-83
2022/07/20 04:27:05;;;;;;;7.78;3.42;;;22.60;93.70;;;;;;5044312;28;20572;-82
2022/07/20 04:29:31;;;;;;;8.32;3.83;;;23.80;93.30;;;;;;5038925;28;20172;-81
2022/07/20 04:31:57;;;;;;;7.65;3.35;;;23.80;92.70;;;;;;5026533;28;20041;-82
2022/07/20 04:34:23;;;;;;;5.38;3.72;;;23.10;93.00;;;;;;5034855;28;20041;-82
2022/07/20 04:36:49;;;;;;;15.30;5.05;;;22.90;93.50;;;;;;5045155;28;20037;-81
2022/07/20 04:39:15;;;;;;;6.50;3.95;;;22.90;93.70;;;;;;5044860;28;20056;-81
2022/07/20 04:41:40;;;;;;;8.82;2.83;;;22.80;94.00;;;;;;5044272;28;20037;-81
2022/07/20 04:44:06;;;;;;;9.25;2.85;;;22.60;94.10;;;;;;5043648;28;20029;-82
2022/07/20 04:46:32;;;;;;;10.32;3.80;;;22.50;94.20;;;;;;5032441;28;20036;-81
2022/07/20 04:48:58;;;;;;;3.13;2.78;;;22.40;94.20;;;;;;5034075;28;20404;-83
2022/07/20 04:51:24;;;;;;;6.15;3.13;;;22.40;94.20;;;;;;5032878;28;20044;-82
2022/07/20 04:53:51;;;;;;;6.63;4.00;;;22.40;94.30;;;;;;5040508;28;20056;-81
2022/07/20 04:56:18;;;;;;;9.50;3.15;;;22.40;94.40;;;;;;5038432;28;20077;-82
2022/07/20 04:58:47;;;;;;;7.95;3.25;;;22.40;94.40;;;;;;5047397;28;20044;-81
2022/07/20 05:01:13;;;;;;;4.43;3.50;;;22.30;94.60;;;;;;5037471;28;20036;-82
2022/07/20 05:03:39;;;;;;;6.07;3.80;;;22.30;94.80;;;;;;5046342;28;20055;-81
2022/07/20 05:06:05;;;;;;;10.10;4.40;;;22.30;94.80;;;;;;5039644;28;20048;-82
2022/07/20 05:08:30;;;;;;;9.25;4.65;;;22.40;94.80;;;;;;5046505;28;20149;-81
2022/07/20 05:10:56;;;;;;;4.63;3.40;;;22.40;95.10;;;;;;5031034;28;20099;-81
2022/07/20 05:13:21;;;;;;;9.10;3.83;;;22.40;94.80;;;;;;5046776;28;20657;-82
2022/07/20 05:15:47;;;;;;;4.38;3.58;;;22.40;94.90;;;;;;5034165;28;20098;-81
2022/07/20 05:18:13;;;;;;;6.97;3.92;;;22.50;94.80;;;;;;5022567;28;20067;-81
2022/07/20 05:20:38;;;;;;;7.93;3.15;;;22.50;95.00;;;;;;5043431;28;20068;-81
2022/07/20 05:23:04;;;;;;;7.10;3.40;;;22.50;94.80;;;;;;5045320;28;20049;-82
2022/07/20 05:25:30;;;;;;;4.85;3.10;;;22.60;94.80;;;;;;5044563;28;20025;-81
2022/07/20 05:27:55;;;;;;;9.82;4.05;;;22.60;94.90;;;;;;5038530;28;20042;-81
2022/07/20 05:30:21;;;;;;;5.20;3.55;;;22.70;95.10;;;;;;5037908;28;20030;-80
2022/07/20 05:32:46;;;;;;;11.13;3.80;;;22.70;95.10;;;;;;5035773;28;20047;-80
2022/07/20 05:35:12;;;;;;;10.77;4.18;;;22.80;95.10;;;;;;5039298;28;20033;-82
2022/07/20 05:37:38;;;;;;;13.32;3.80;;;22.80;95.10;;;;;;5041866;28;20124;-81
2022/07/20 05:40:04;;;;;;;7.93;3.33;;;22.90;95.00;;;;;;5041448;28;20045;-81
2022/07/20 05:42:29;;;;;;;4.20;3.13;;;23.00;94.90;;;;;;5024968;28;20100;-81
2022/07/20 05:44:55;;;;;;;9.07;3.67;;;23.00;95.00;;;;;;5024677;28;20046;-81
2022/07/20 05:47:22;;;;;;;5.50;4.20;;;23.10;95.00;;;;;;5040834;28;20422;-80
2022/07/20 05:49:48;;;;;;;8.85;4.90;;;23.10;95.00;;;;;;5043412;28;20474;-80
2022/07/20 05:52:15;;;;;;;9.73;3.47;;;23.10;95.50;;;;;;5043114;28;20525;-81
2022/07/20 05:54:41;;;;;;;5.97;3.38;;;23.10;95.40;;;;;;5044301;28;20460;-81
2022/07/20 05:57:06;;;;;;;8.88;3.50;;;23.20;95.50;;;;;;5026438;28;20046;-81
2022/07/20 05:59:32;;;;;;;9.70;4.22;;;23.30;95.80;;;;;;5040689;28;20391;-80
2022/07/20 06:01:58;;;;;;;6.75;3.38;;;23.30;95.60;;;;;;5030657;28;20052;-82
2022/07/20 06:04:23;;;;;;;10.70;3.92;;;23.40;95.50;;;;;;5041137;28;20112;-84
2022/07/20 06:06:49;;;;;;;11.55;3.75;;;23.40;95.50;;;;;;5037779;28;20040;-79
2022/07/20 06:09:14;;;;;;;7.28;4.05;;;23.50;95.70;;;;;;5044137;28;20053;-81
2022/07/20 06:11:40;;;;;;;8.07;3.22;;;23.50;95.50;;;;;;5040847;28;20040;-80
2022/07/20 06:14:06;;;;;;;4.93;3.40;;;23.60;95.50;;;;;;5037039;28;20119;-79
2022/07/20 06:16:32;;;;;;;6.85;3.50;;;23.70;95.50;;;;;;5034548;28;20069;-74
2022/07/20 06:18:57;;;;;;;7.72;3.75;;;23.80;95.40;;;;;;5031470;28;20045;-75
2022/07/20 06:21:23;;;;;;;7.40;3.58;;;23.90;95.50;;;;;;5043643;28;20047;-75
2022/07/20 06:23:49;;;;;;;8.45;4.05;;;24.00;95.40;;;;;;5040441;28;20120;-74
2022/07/20 06:26:15;;;;;;;8.80;3.63;;;24.00;95.50;;;;;;5046401;28;20068;-84
2022/07/20 06:28:41;;;;;;;9.48;3.50;;;24.10;95.40;;;;;;5045800;28;20491;-83
2022/07/20 06:31:06;;;;;;;6.35;3.40;;;24.10;95.60;;;;;;5043191;28;20037;-82
2022/07/20 06:33:32;;;;;;;11.15;3.80;;;24.20;95.50;;;;;;5045011;28;20043;-78
2022/07/20 06:35:58;;;;;;;7.80;3.85;;;24.30;95.60;;;;;;5044265;28;20124;-78
2022/07/20 06:38:24;;;;;;;6.03;3.40;;;24.30;95.70;;;;;;5022589;28;20121;-79
2022/07/20 06:40:49;;;;;;;14.80;3.80;;;24.30;95.80;;;;;;5024335;28;20045;-78
2022/07/20 06:43:15;;;;;;;6.13;4.40;;;24.40;96.10;;;;;;5034037;28;20403;-78
2022/07/20 06:45:40;;;;;;;8.30;4.78;;;24.40;96.40;;;;;;5045560;28;20480;-77
2022/07/20 06:48:06;;;;;;;12.57;4.43;;;24.50;96.50;;;;;;5044403;28;20045;-77
2022/07/20 06:50:32;;;;;;;5.25;4.20;;;24.50;96.80;;;;;;5043002;28;20053;-77
2022/07/20 06:52:57;;;;;;;9.88;4.72;;;24.60;96.90;;;;;;5043891;28;20041;-78
2022/07/20 06:55:23;;;;;;;19.40;7.18;;;24.60;96.90;;;;;;5043491;28;20479;-77
2022/07/20 06:57:49;;;;;;;8.48;5.00;;;24.70;97.10;;;;;;5047263;28;20067;-76
2022/07/20 07:00:14;;;;;;;14.20;5.32;;;24.80;97.60;;;;;;5047298;28;20704;-78
2022/07/20 07:02:40;;;;;;;12.77;5.70;;;25.00;97.90;;;;;;5033597;28;20045;-77
2022/07/20 07:05:07;;;;;;;15.07;5.85;;;25.40;97.80;;;;;;5038627;28;20414;-77
2022/07/20 07:07:32;;;;;;;10.43;8.07;;;25.50;98.20;;;;;;5044700;28;20044;-79
2022/07/20 07:09:58;;;;;;;13.40;8.10;;;26.20;98.30;;;;;;5045951;28;20476;-78
2022/07/20 07:12:24;;;;;;;17.88;8.55;;;27.10;98.30;;;;;;5048369;28;20041;-78
2022/07/20 07:14:49;;;;;;;12.88;8.18;;;27.90;98.20;;;;;;5043801;28;20179;-76
2022/07/20 07:17:16;;;;;;;13.65;9.20;;;28.60;97.90;;;;;;5031890;28;20033;-75
2022/07/20 07:19:42;;;;;;;20.85;10.00;;;28.90;97.50;;;;;;5043541;28;20119;-77
2022/07/20 07:22:08;;;;;;;20.33;9.30;;;29.40;97.50;;;;;;5047230;28;20132;-82
2022/07/20 07:24:33;;;;;;;13.95;10.30;;;29.50;97.40;;;;;;5042320;28;20099;-77
2022/07/20 07:26:59;;;;;;;16.70;9.57;;;30.00;97.40;;;;;;5046739;28;20053;-79
2022/07/20 07:29:25;;;;;;;13.98;9.18;;;30.10;97.50;;;;;;5046876;28;20257;-81
2022/07/20 07:31:52;;;;;;;15.93;8.80;;;29.90;97.30;;;;;;5042584;28;20040;-78
2022/07/20 07:34:18;;;;;;;11.98;9.57;;;30.40;97.40;;;;;;5046144;28;20045;-79
2022/07/20 07:36:43;;;;;;;19.50;10.80;;;30.50;97.60;;;;;;5047365;28;20040;-78
2022/07/20 07:39:09;;;;;;;20.77;13.02;;;30.10;97.70;;;;;;5044982;28;20507;-81
2022/07/20 07:41:35;;;;;;;20.10;12.07;;;30.10;98.00;;;;;;5035557;28;20241;-79
2022/07/20 07:44:01;;;;;;;23.27;13.68;;;30.30;98.20;;;;;;5044806;28;20049;-79
2022/07/20 07:46:26;;;;;;;20.27;14.45;;;30.10;98.10;;;;;;5037504;28;20233;-79
2022/07/20 07:48:52;;;;;;;18.30;12.95;;;30.00;98.50;;;;;;5041405;28;20052;-79
2022/07/20 07:51:18;;;;;;;19.38;13.25;;;29.10;99.20;;;;;;5047233;28;20120;-77
2022/07/20 07:53:44;;;;;;;20.27;14.15;;;28.50;99.80;;;;;;5043611;28;20132;-78
2022/07/20 07:56:11;;;;;;;20.90;14.27;;;28.40;99.90;;;;;;5047015;28;20120;-78
2022/07/20 07:58:36;;;;;;;22.95;14.15;;;28.20;99.90;;;;;;5041327;28;20044;-77
2022/07/20 08:01:02;;;;;;;22.23;15.10;;;28.20;99.90;;;;;;5036162;28;20205;-76
2022/07/20 08:03:28;;;;;;;36.42;15.27;;;28.10;99.90;;;;;;5044696;28;20124;-78
2022/07/20 08:05:53;;;;;;;20.90;14.52;;;28.10;99.90;;;;;;5027788;28;20083;-76
2022/07/20 08:08:19;;;;;;;29.85;16.85;;;28.10;99.90;;;;;;5039190;28;20048;-78
2022/07/20 08:10:45;;;;;;;20.65;15.88;;;28.00;99.90;;;;;;5041920;28;20124;-79
2022/07/20 08:13:10;;;;;;;33.38;19.70;;;28.10;99.90;;;;;;5046786;28;20051;-79
2022/07/20 08:15:37;;;;;;;23.52;17.52;;;27.80;99.90;;;;;;5057267;28;20079;-78
2022/07/20 08:18:03;;;;;;;28.38;18.27;;;27.80;99.90;;;;;;5067734;28;20048;-78
2022/07/20 08:20:30;;;;;;;23.55;18.40;;;28.20;99.90;;;;;;5067982;28;20040;-79
2022/07/20 08:22:56;;;;;;;29.40;19.38;;;28.10;99.90;;;;;;5028563;28;20415;-79
2022/07/20 08:25:22;;;;;;;26.80;19.90;;;28.00;99.90;;;;;;5017864;28;20037;-78
2022/07/20 08:27:48;;;;;;;28.17;20.92;;;27.90;99.90;;;;;;5047476;28;20102;-77
2022/07/20 08:30:15;;;;;;;30.35;19.33;;;27.80;99.90;;;;;;5048031;28;20147;-89
2022/07/20 08:32:41;;;;;;;29.00;20.02;;;28.00;99.90;;;;;;5046955;28;20032;-85
2022/07/20 08:35:07;;;;;;;26.98;19.50;;;28.10;99.90;;;;;;5046230;28;20045;-84
2022/07/20 08:37:33;;;;;;;30.35;17.58;;;28.00;99.90;;;;;;5049371;28;20072;-84
2022/07/20 08:39:59;;;;;;;27.45;19.95;;;28.10;99.90;;;;;;5049573;28;20076;-85
2022/07/20 08:42:25;;;;;;;25.73;19.60;;;28.10;99.90;;;;;;5047269;28;20048;-85
2022/07/20 08:44:50;;;;;;;31.75;21.67;;;28.20;99.90;;;;;;5037247;28;20037;-79
2022/07/20 08:47:17;;;;;;;35.13;20.85;;;28.20;99.90;;;;;;5026573;28;20095;-79
2022/07/20 08:49:48;;;;;;;29.48;20.40;;;28.30;99.90;;;;;;5042554;28;20049;-79
2022/07/20 08:52:16;;;;;;;26.75;21.77;;;28.30;99.90;;;;;;5047565;28;20048;-80
2022/07/20 08:54:41;;;;;;;27.73;19.80;;;28.30;99.90;;;;;;5044862;28;20060;-79
2022/07/20 08:57:15;;;;;;;30.73;22.35;;;28.10;99.90;;;;;;5031382;28;20052;-77
2022/07/20 08:59:42;;;;;;;32.33;21.77;;;28.20;99.90;;;;;;5047257;28;20090;-79
2022/07/20 09:02:09;;;;;;;36.92;21.83;;;28.10;99.90;;;;;;5044245;28;20067;-78
2022/07/20 09:04:57;;;;;;;27.42;20.60;;;28.10;99.90;;;;;;5041550;28;20037;-78
2022/07/20 09:07:43;;;;;;;27.52;19.50;;;28.00;99.90;;;;;;5046880;28;20049;-78
2022/07/20 09:10:25;;;;;;;27.08;20.80;;;27.80;99.90;;;;;;5047595;28;20056;-79
2022/07/20 09:13:02;;;;;;;30.73;18.92;;;27.90;99.90;;;;;;5046979;28;20044;-76
2022/07/20 09:15:43;;;;;;;27.45;21.27;;;28.30;99.90;;;;;;5034629;28;20454;-81
2022/07/20 09:18:22;;;;;;;29.77;20.90;;;28.00;99.90;;;;;;5045390;28;20047;-80
2022/07/20 09:20:51;;;;;;;31.00;22.10;;;28.30;99.90;;;;;;5028596;28;20072;-79
2022/07/20 09:23:21;;;;;;;24.27;20.52;;;28.20;99.90;;;;;;5051597;28;20076;-91
2022/07/20 09:26:02;;;;;;;30.85;19.20;;;27.90;99.90;;;;;;5061363;28;20041;-88
2022/07/20 09:28:46;;;;;;;27.95;20.10;;;27.70;99.90;;;;;;5051663;28;20060;-89
2022/07/20 09:31:20;;;;;;;24.40;17.80;;;27.80;99.90;;;;;;5048348;28;20049;-92
2022/07/20 09:33:49;;;;;;;28.42;19.15;;;28.00;99.90;;;;;;5051613;28;20041;-84
2022/07/20 09:36:15;;;;;;;21.80;16.20;;;28.10;99.90;;;;;;5046822;28;20107;-85
2022/07/20 09:38:42;;;;;;;31.63;19.73;;;28.20;99.90;;;;;;5046484;28;20043;-84
2022/07/20 09:41:27;;;;;;;26.23;18.27;;;28.30;99.90;;;;;;5046204;28;20128;-84
2022/07/20 09:43:53;;;;;;;29.15;20.67;;;28.20;99.90;;;;;;5036744;28;20110;-84
2022/07/20 09:46:22;;;;;;;26.92;19.63;;;28.30;99.90;;;;;;5031051;28;20439;-84
2022/07/20 09:48:56;;;;;;;30.85;18.02;;;28.30;99.90;;;;;;5034153;28;20086;-85
2022/07/20 09:51:31;;;;;;;24.13;17.95;;;28.30;99.90;;;;;;5049141;28;20506;-84
2022/07/20 09:54:05;;;;;;;26.17;17.50;;;28.40;99.90;;;;;;5048330;28;20053;-91
2022/07/20 09:56:33;;;;;;;29.75;16.15;;;28.20;99.90;;;;;;5056136;28;20114;-86
2022/07/20 09:59:03;;;;;;;22.52;13.82;;;28.30;99.90;;;;;;5052748;28;20040;-87
2022/07/20 10:01:35;;;;;;;22.55;12.75;;;28.10;99.90;;;;;;5048099;28;20037;-83
2022/07/20 10:04:06;;;;;;;18.33;11.15;;;28.30;99.90;;;;;;5046128;28;20082;-84
2022/07/20 10:06:33;;;;;;;18.27;10.95;;;28.00;99.90;;;;;;5047057;28;20049;-86
2022/07/20 10:09:00;;;;;;;18.58;11.00;;;28.10;99.90;;;;;;5046085;28;20033;-84
2022/07/20 10:11:26;;;;;;;14.20;9.40;;;28.20;99.90;;;;;;5046231;28;20052;-88
2022/07/20 10:13:54;;;;;;;16.25;10.13;;;28.10;99.90;;;;;;5049019;28;20052;-85
2022/07/20 10:16:32;;;;;;;33.47;11.25;;;28.10;99.70;;;;;;5039748;28;20036;-84
2022/07/20 10:18:58;;;;;;;18.10;11.10;;;27.90;99.90;;;;;;5047714;28;20037;-83
2022/07/20 10:21:39;;;;;;;25.25;14.00;;;28.00;99.90;;;;;;5044844;28;20557;-84
2022/07/20 10:24:16;;;;;;;16.48;10.25;;;28.20;99.90;;;;;;5045867;28;20045;-83
2022/07/20 10:26:43;;;;;;;16.35;10.75;;;28.30;99.90;;;;;;5046232;28;20055;-82
2022/07/20 10:29:10;;;;;;;19.25;11.70;;;28.30;99.90;;;;;;5047623;28;20124;-90
2022/07/20 10:31:53;;;;;;;21.52;10.98;;;28.60;99.90;;;;;;5052587;28;20045;-83
2022/07/20 10:34:42;;;;;;;15.93;10.88;;;28.30;99.90;;;;;;5056266;28;20071;-82
2022/07/20 10:37:29;;;;;;;15.25;10.85;;;28.40;99.90;;;;;;5031213;28;20053;-82
2022/07/20 10:40:08;;;;;;;19.13;10.02;;;28.30;99.90;;;;;;5051880;28;20049;-86
2022/07/20 10:42:44;;;;;;;14.63;10.45;;;28.30;99.90;;;;;;5060798;28;20044;-83
2022/07/20 10:45:16;;;;;;;17.35;10.63;;;28.50;99.90;;;;;;5050395;28;20052;-83
2022/07/20 10:47:49;;;;;;;16.00;10.43;;;28.70;99.90;;;;;;5049430;28;20264;-86
2022/07/20 10:50:29;;;;;;;12.48;10.00;;;28.80;99.90;;;;;;5033750;28;20144;-85
2022/07/20 10:53:08;;;;;;;17.13;9.98;;;28.80;99.70;;;;;;5036400;28;20049;-84
2022/07/20 10:55:34;;;;;;;12.65;9.63;;;28.70;99.90;;;;;;5027971;28;20492;-83
2022/07/20 10:58:03;;;;;;;14.65;10.82;;;28.60;99.80;;;;;;5050243;28;20043;-83
2022/07/20 11:00:30;;;;;;;15.43;10.93;;;28.30;99.20;;;;;;5047795;28;20649;-84
2022/07/20 11:02:59;;;;;;;16.17;11.00;;;28.60;99.50;;;;;;5045304;28;20049;-73
2022/07/20 11:05:24;;;;;;;14.27;8.98;;;28.60;99.50;;;;;;5045951;28;20041;-77
2022/07/20 11:07:50;;;;;;;16.20;9.63;;;28.60;98.90;;;;;;5036499;28;20064;-77
2022/07/20 11:10:35;;;;;;;13.00;8.77;;;28.50;98.90;;;;;;5059413;28;20094;-88
2022/07/20 11:13:06;;;;;;;16.25;9.27;;;28.70;98.80;;;;;;5039518;28;20120;-83
2022/07/20 11:15:47;;;;;;;19.35;10.02;;;28.90;98.70;;;;;;5051330;28;20044;-82
2022/07/20 11:18:15;;;;;;;13.80;8.80;;;29.10;98.80;;;;;;5040801;28;20049;-83
2022/07/20 11:20:54;;;;;;;11.63;8.48;;;28.90;98.00;;;;;;5054700;28;20052;-84
2022/07/20 11:23:22;;;;;;;14.00;7.95;;;29.00;98.50;;;;;;5052180;28;20041;-82
2022/07/20 11:25:50;;;;;;;12.15;7.40;;;29.10;98.40;;;;;;5055510;28;20078;-80
2022/07/20 11:28:18;;;;;;;15.38;7.88;;;29.10;98.10;;;;;;5048957;28;20064;-76
2022/07/20 11:30:45;;;;;;;13.57;8.48;;;29.20;98.30;;;;;;5068074;28;20041;-77
2022/07/20 11:33:11;;;;;;;12.35;7.28;;;28.90;97.60;;;;;;5052513;28;20056;-74
2022/07/20 11:35:38;;;;;;;13.88;7.55;;;28.80;97.70;;;;;;5053610;28;20037;-75
2022/07/20 11:38:04;;;;;;;20.15;8.18;;;28.80;97.90;;;;;;5052396;28;20045;-76
2022/07/20 11:40:29;;;;;;;13.70;8.50;;;29.00;98.00;;;;;;5046729;28;20037;-76
2022/07/20 11:43:15;;;;;;;16.98;8.90;;;29.00;98.60;;;;;;5045337;28;20051;-76
2022/07/20 11:45:41;;;;;;;10.77;8.05;;;29.00;98.40;;;;;;5014865;28;20316;-76
2022/07/20 11:48:16;;;;;;;10.25;7.20;;;29.00;97.90;;;;;;5034786;28;20381;-76
2022/07/20 11:50:43;;;;;;;13.88;9.63;;;29.20;98.40;;;;;;5032866;28;20496;-76
2022/07/20 11:53:28;;;;;;;11.38;7.88;;;29.00;98.50;;;;;;5041498;28;20029;-75
2022/07/20 11:55:56;;;;;;;12.20;8.07;;;29.10;98.50;;;;;;5026070;28;20124;-76
2022/07/20 11:58:33;;;;;;;20.73;8.70;;;28.90;97.90;;;;;;5034227;28;20044;-75
2022/07/20 12:01:01;;;;;;;12.45;8.73;;;29.20;98.30;;;;;;5040556;28;20060;-76
2022/07/20 12:03:33;;;;;;;22.52;10.40;;;28.90;97.70;;;;;;5057873;28;20049;-84
2022/07/20 12:06:04;;;;;;;10.63;7.80;;;28.60;98.10;;;;;;5051488;28;20412;-76
2022/07/20 12:08:31;;;;;;;11.68;8.80;;;29.00;98.40;;;;;;5046575;28;20124;-76
2022/07/20 12:10:57;;;;;;;19.42;8.30;;;29.20;98.50;;;;;;5045598;28;20056;-76
2022/07/20 12:13:23;;;;;;;16.33;8.93;;;29.20;98.70;;;;;;5046386;28;20055;-83
2022/07/20 12:16:04;;;;;;;16.05;8.45;;;29.20;98.90;;;;;;5044514;28;20416;-87
2022/07/20 12:18:44;;;;;;;13.32;9.07;;;29.10;99.40;;;;;;5048583;28;20357;-85
2022/07/20 12:21:12;;;;;;;13.52;8.70;;;29.10;99.30;;;;;;5049401;28;20072;-86
2022/07/20 12:23:38;;;;;;;15.68;10.63;;;29.00;99.60;;;;;;5045151;28;20995;-84
2022/07/20 12:26:25;;;;;;;15.93;10.70;;;29.10;98.90;;;;;;5047146;28;20044;-84
2022/07/20 12:28:52;;;;;;;15.15;9.85;;;29.00;98.60;;;;;;5046828;28;20246;-83
2022/07/20 12:31:20;;;;;;;12.48;9.63;;;29.20;98.30;;;;;;5046069;28;20048;-81
2022/07/20 12:34:09;;;;;;;18.50;8.73;;;29.00;98.10;;;;;;5029974;28;20843;-81
2022/07/20 12:36:49;;;;;;;11.90;8.13;;;29.20;98.30;;;;;;5026663;28;20072;-86
2022/07/20 12:39:35;;;;;;;14.18;8.18;;;29.40;98.60;;;;;;5026516;28;20661;-86
2022/07/20 12:42:15;;;;;;;12.77;9.05;;;29.70;98.60;;;;;;5025905;28;20113;-87
2022/07/20 12:44:42;;;;;;;15.40;7.55;;;29.90;98.50;;;;;;5029479;28;20571;-87
2022/07/20 12:47:08;;;;;;;8.48;7.32;;;29.50;98.40;;;;;;5065286;28;20123;-81